Time;durP1;ratioP1;P1;durP2;ratioP2;P2;SDS_P1;SDS_P2;PMS_P1;PMS_P2;Temp;Humidity;BMP_temperature;BMP_pressure;BME280_temperature;BME280_humidity;BME280_pressure;Samples;Min_cycle;Max_cycle;Signal;HPM_P1;HPM_P2
2021/07/14 00:00:09;;;;;;;4.60;2.92;;;13.80;99.90;;;;;;4972275;28;20023;-70
2021/07/14 00:02:35;;;;;;;2.63;2.47;;;13.80;99.90;;;;;;4972300;28;20023;-70
2021/07/14 00:05:00;;;;;;;5.53;3.13;;;13.80;99.90;;;;;;4954352;28;20186;-70
2021/07/14 00:07:26;;;;;;;3.90;2.85;;;13.90;99.90;;;;;;4972291;28;20022;-70
2021/07/14 00:09:52;;;;;;;9.43;3.35;;;14.00;99.90;;;;;;4972255;28;20034;-70
2021/07/14 00:12:18;;;;;;;4.32;3.70;;;14.00;99.90;;;;;;4972250;28;20482;-70
2021/07/14 00:15:03;;;;;;;4.32;3.10;;;14.00;99.90;;;;;;4971461;28;20061;-70
2021/07/14 00:17:52;;;;;;;3.50;3.00;;;14.00;99.90;;;;;;4972548;28;20026;-70
2021/07/14 00:23:02;;;;;;;5.47;3.38;;;13.90;99.90;;;;;;4971757;28;20033;-70
2021/07/14 00:25:28;;;;;;;10.48;3.00;;;13.80;99.90;;;;;;4971327;28;20126;-71
2021/07/14 00:27:54;;;;;;;5.03;2.80;;;13.80;99.90;;;;;;4972170;28;20019;-70
2021/07/14 00:30:25;;;;;;;2.60;2.40;;;13.70;99.90;;;;;;4972128;28;20496;-70
2021/07/14 00:32:51;;;;;;;8.95;3.25;;;13.70;99.90;;;;;;4972245;28;20022;-71
2021/07/14 00:35:16;;;;;;;7.65;3.28;;;13.70;99.90;;;;;;4971333;28;20105;-70
2021/07/14 00:37:42;;;;;;;5.95;3.17;;;13.80;99.90;;;;;;4973536;28;20051;-70
2021/07/14 00:40:09;;;;;;;5.75;3.38;;;13.80;99.90;;;;;;4975366;28;20606;-70
2021/07/14 00:42:35;;;;;;;6.00;2.83;;;13.90;99.90;;;;;;4975633;28;20501;-70
2021/07/14 00:45:01;;;;;;;7.05;2.90;;;13.90;99.90;;;;;;4975919;28;20031;-70
2021/07/14 00:47:30;;;;;;;3.22;2.78;;;13.80;99.90;;;;;;4976061;28;20374;-70
2021/07/14 00:49:57;;;;;;;5.70;2.85;;;13.80;99.90;;;;;;4958081;28;20485;-70
2021/07/14 00:52:23;;;;;;;4.40;3.03;;;13.70;99.90;;;;;;4975369;28;20101;-70
2021/07/14 00:54:49;;;;;;;6.78;3.20;;;13.70;99.90;;;;;;4974345;28;20105;-70
2021/07/14 00:57:17;;;;;;;7.97;3.85;;;13.70;99.90;;;;;;4975358;28;20027;-70
2021/07/14 00:59:43;;;;;;;6.88;3.15;;;13.70;99.90;;;;;;4975325;28;20027;-69
2021/07/14 01:02:09;;;;;;;9.30;2.72;;;13.70;99.90;;;;;;4975302;28;20022;-70
2021/07/14 01:04:40;;;;;;;5.65;2.90;;;13.60;99.90;;;;;;4974652;28;20031;-71
2021/07/14 01:07:16;;;;;;;9.13;2.80;;;13.60;99.90;;;;;;4975254;28;20030;-70
2021/07/14 01:10:16;;;;;;;4.20;2.88;;;13.40;99.90;;;;;;4974778;28;20035;-70
2021/07/14 01:13:03;;;;;;;8.20;3.53;;;13.60;99.90;;;;;;4966930;28;20038;-70
2021/07/14 01:15:37;;;;;;;10.20;4.38;;;13.40;99.90;;;;;;4974337;28;20037;-70
2021/07/14 01:18:17;;;;;;;9.88;3.85;;;13.40;99.90;;;;;;4957609;28;20027;-70
2021/07/14 01:20:58;;;;;;;19.98;4.57;;;13.50;99.90;;;;;;4974983;28;20033;-70
2021/07/14 01:23:33;;;;;;;11.68;4.70;;;13.50;99.90;;;;;;4974742;28;20035;-70
2021/07/14 01:26:06;;;;;;;6.43;4.75;;;13.50;99.90;;;;;;4974050;28;20804;-70
2021/07/14 01:28:35;;;;;;;8.25;4.88;;;13.50;99.90;;;;;;4974812;28;20027;-70
2021/07/14 01:31:02;;;;;;;9.32;5.00;;;13.40;99.90;;;;;;4974943;28;20039;-72
2021/07/14 01:33:37;;;;;;;12.80;4.95;;;13.40;99.90;;;;;;4974762;28;20039;-70
2021/07/14 01:36:08;;;;;;;12.07;5.65;;;13.40;99.90;;;;;;4973946;28;20023;-70
2021/07/14 01:38:36;;;;;;;12.35;5.85;;;13.50;99.90;;;;;;4974749;28;20512;-70
2021/07/14 01:41:02;;;;;;;7.70;5.45;;;13.50;99.90;;;;;;4974671;28;20392;-70
2021/07/14 01:43:34;;;;;;;7.20;5.45;;;13.40;99.90;;;;;;4974612;28;20030;-70
2021/07/14 01:46:01;;;;;;;7.00;4.35;;;13.50;99.90;;;;;;4974067;28;20030;-70
2021/07/14 01:48:30;;;;;;;12.32;4.63;;;13.40;99.90;;;;;;4973772;28;20035;-70
2021/07/14 01:50:57;;;;;;;7.88;3.83;;;13.40;99.90;;;;;;4974512;28;20445;-70
2021/07/14 01:53:25;;;;;;;4.80;3.38;;;13.40;99.90;;;;;;4973925;28;20078;-70
2021/07/14 01:55:51;;;;;;;8.20;3.50;;;13.30;99.90;;;;;;4974075;28;20069;-70
2021/07/14 01:58:19;;;;;;;6.95;3.17;;;13.40;99.90;;;;;;4974348;28;20023;-70
2021/07/14 02:00:47;;;;;;;7.18;3.33;;;13.30;99.90;;;;;;4974223;28;20027;-70
2021/07/14 02:03:56;;;;;;;10.95;3.38;;;13.40;99.90;;;;;;4974090;28;20466;-70
2021/07/14 02:06:07;;;;;;;11.18;3.50;;;13.30;99.90;;;;;;4969421;28;20494;-70
2021/07/14 02:08:37;;;;;;;3.80;3.20;;;13.30;99.90;;;;;;4956405;28;20031;-70
2021/07/14 02:11:03;;;;;;;4.22;2.85;;;13.40;99.90;;;;;;4974109;28;20018;-70
2021/07/14 02:13:30;;;;;;;9.98;3.45;;;13.40;99.90;;;;;;4973864;28;20027;-70
2021/07/14 02:15:59;;;;;;;3.92;2.63;;;13.40;99.90;;;;;;4973276;28;20125;-70
2021/07/14 02:18:33;;;;;;;6.45;2.90;;;13.30;99.90;;;;;;4973872;28;20018;-70
2021/07/14 02:20:59;;;;;;;6.05;2.90;;;13.40;99.90;;;;;;4974031;28;20018;-70
2021/07/14 02:23:25;;;;;;;8.82;3.20;;;13.30;99.90;;;;;;4973658;28;20027;-70
2021/07/14 02:25:51;;;;;;;8.02;2.97;;;13.30;99.90;;;;;;4973005;28;20027;-71
2021/07/14 02:28:17;;;;;;;7.88;3.55;;;13.40;99.90;;;;;;4973547;28;20117;-71
2021/07/14 02:30:42;;;;;;;6.60;3.30;;;13.40;99.90;;;;;;4973612;28;20105;-71
2021/07/14 02:33:11;;;;;;;8.35;3.45;;;13.40;99.90;;;;;;4973573;28;20050;-71
2021/07/14 02:35:39;;;;;;;3.75;3.42;;;13.30;99.90;;;;;;4973043;28;20102;-70
2021/07/14 02:38:12;;;;;;;7.22;3.70;;;13.30;99.90;;;;;;4973392;28;20022;-70
2021/07/14 02:41:07;;;;;;;3.72;3.42;;;13.30;99.90;;;;;;4973194;28;20030;-70
2021/07/14 02:43:37;;;;;;;4.90;3.72;;;13.30;99.90;;;;;;4973353;28;20548;-70
2021/07/14 02:46:12;;;;;;;8.85;4.13;;;13.30;99.90;;;;;;4972789;28;20031;-71
2021/07/14 02:48:39;;;;;;;5.30;3.55;;;13.30;99.90;;;;;;4973282;28;20082;-71
2021/07/14 02:51:06;;;;;;;8.80;3.10;;;13.20;99.90;;;;;;4973435;28;20027;-70
2021/07/14 02:53:53;;;;;;;6.25;2.92;;;13.10;99.90;;;;;;4973044;28;20405;-70
2021/07/14 02:56:22;;;;;;;10.10;2.78;;;13.00;99.90;;;;;;4972403;28;20023;-70
2021/07/14 02:58:53;;;;;;;4.63;2.20;;;12.90;99.90;;;;;;4973380;28;20051;-70
2021/07/14 03:01:20;;;;;;;6.82;2.22;;;12.90;99.90;;;;;;4972401;28;20022;-70
2021/07/14 03:03:50;;;;;;;4.75;2.30;;;12.90;99.90;;;;;;4973552;28;20077;-71
2021/07/14 03:06:16;;;;;;;4.50;2.58;;;12.90;99.90;;;;;;4972434;28;20034;-71
2021/07/14 03:08:47;;;;;;;8.38;2.75;;;12.80;99.90;;;;;;4972697;28;20485;-70
2021/07/14 03:11:14;;;;;;;12.35;2.25;;;13.00;99.90;;;;;;4973188;28;20030;-70
2021/07/14 03:13:40;;;;;;;7.45;2.50;;;12.90;99.90;;;;;;4972856;28;20054;-70
2021/07/14 03:16:06;;;;;;;8.60;2.80;;;12.90;99.90;;;;;;4972058;28;20375;-70
2021/07/14 03:18:33;;;;;;;10.48;2.42;;;12.90;99.90;;;;;;4972783;28;20701;-70
2021/07/14 03:21:01;;;;;;;6.25;2.60;;;12.90;99.90;;;;;;4972918;28;20082;-70
2021/07/14 03:23:28;;;;;;;10.18;3.55;;;12.80;99.90;;;;;;4972814;28;20029;-70
2021/07/14 03:25:56;;;;;;;8.55;2.88;;;12.90;99.90;;;;;;4972063;28;20041;-70
2021/07/14 03:28:22;;;;;;;7.32;3.08;;;13.00;99.90;;;;;;4972594;28;20421;-71
2021/07/14 03:30:52;;;;;;;5.20;2.72;;;13.10;99.90;;;;;;4972532;28;20122;-71
2021/07/14 03:33:17;;;;;;;7.50;2.50;;;13.10;99.90;;;;;;4972590;28;20466;-70
2021/07/14 03:35:44;;;;;;;8.45;2.42;;;13.10;99.90;;;;;;4972008;28;20037;-71
2021/07/14 03:38:11;;;;;;;9.18;2.78;;;13.10;99.90;;;;;;4972503;28;20617;-70
2021/07/14 03:40:42;;;;;;;10.75;2.90;;;13.10;99.90;;;;;;4972277;28;20054;-70
2021/07/14 03:43:09;;;;;;;10.27;2.70;;;13.20;99.90;;;;;;4972418;28;20029;-71
2021/07/14 03:45:36;;;;;;;11.55;2.40;;;13.30;99.90;;;;;;4971853;28;20027;-71
2021/07/14 03:48:03;;;;;;;3.05;2.08;;;13.20;99.90;;;;;;4972691;28;20108;-71
2021/07/14 03:50:31;;;;;;;6.07;2.25;;;13.10;99.90;;;;;;4972444;28;20026;-70
2021/07/14 03:52:57;;;;;;;7.60;2.55;;;13.20;99.90;;;;;;4972404;28;20098;-71
2021/07/14 03:55:23;;;;;;;10.70;2.80;;;13.20;99.90;;;;;;4971375;28;20049;-71
2021/07/14 03:57:49;;;;;;;3.67;2.72;;;13.40;99.90;;;;;;4972409;28;20482;-71
2021/07/14 04:00:15;;;;;;;5.50;2.85;;;13.30;99.90;;;;;;4972449;28;20023;-71
2021/07/14 04:02:45;;;;;;;9.00;2.83;;;13.30;99.90;;;;;;4972337;28;20102;-71
2021/07/14 04:05:13;;;;;;;7.55;2.97;;;13.50;99.90;;;;;;4971705;28;20034;-71
2021/07/14 04:07:43;;;;;;;5.32;2.53;;;13.40;99.90;;;;;;4972439;28;20346;-71
2021/07/14 04:10:10;;;;;;;5.78;2.78;;;13.40;99.90;;;;;;4966050;28;20374;-71
2021/07/14 04:12:35;;;;;;;5.57;2.65;;;13.50;99.90;;;;;;4969390;28;20027;-70
2021/07/14 04:15:01;;;;;;;5.97;2.90;;;13.50;99.90;;;;;;4974979;28;20118;-70
2021/07/14 04:17:27;;;;;;;6.82;2.50;;;13.50;99.90;;;;;;4973284;28;20090;-70
2021/07/14 04:19:53;;;;;;;6.85;3.30;;;13.50;99.90;;;;;;4974612;28;20027;-71
2021/07/14 04:22:18;;;;;;;5.55;2.75;;;13.60;99.90;;;;;;4975381;28;20062;-70
2021/07/14 04:24:44;;;;;;;11.18;2.72;;;13.60;99.90;;;;;;4974919;28;20031;-71
2021/07/14 04:27:10;;;;;;;12.75;3.13;;;13.60;99.90;;;;;;4975630;28;20037;-70
2021/07/14 04:29:36;;;;;;;8.85;3.10;;;13.60;99.90;;;;;;4975674;28;20037;-71
2021/07/14 04:32:03;;;;;;;10.63;3.00;;;13.80;99.90;;;;;;4975496;28;20498;-70
2021/07/14 04:34:29;;;;;;;8.93;3.03;;;13.90;99.90;;;;;;4957616;28;20037;-71
2021/07/14 04:36:55;;;;;;;3.63;2.30;;;13.80;99.90;;;;;;4975496;28;20106;-71
2021/07/14 04:39:20;;;;;;;8.63;2.30;;;13.60;99.90;;;;;;4974985;28;20388;-71
2021/07/14 04:41:46;;;;;;;7.68;2.35;;;13.40;99.90;;;;;;4975116;28;20078;-70
2021/07/14 04:44:14;;;;;;;4.18;2.45;;;13.40;99.90;;;;;;4975764;28;20027;-71
2021/07/14 04:46:40;;;;;;;12.38;2.58;;;13.40;99.90;;;;;;4975167;28;20029;-71
2021/07/14 04:49:05;;;;;;;10.98;2.80;;;13.40;99.90;;;;;;4975423;28;20031;-71
2021/07/14 04:51:31;;;;;;;3.65;2.67;;;13.30;99.90;;;;;;4975187;28;20026;-70
2021/07/14 04:53:57;;;;;;;5.13;2.47;;;13.30;99.90;;;;;;4974831;28;20039;-71
2021/07/14 04:56:22;;;;;;;4.68;2.53;;;13.30;99.90;;;;;;4974702;28;20062;-72
2021/07/14 04:58:49;;;;;;;5.93;2.90;;;13.40;99.90;;;;;;4975263;28;20133;-71
2021/07/14 05:01:16;;;;;;;7.22;3.33;;;13.40;99.90;;;;;;4967355;28;20031;-70
2021/07/14 05:03:46;;;;;;;14.82;3.08;;;13.40;99.90;;;;;;4965517;28;20486;-71
2021/07/14 05:06:16;;;;;;;6.18;3.15;;;13.30;99.90;;;;;;4969685;28;20030;-70
2021/07/14 05:08:42;;;;;;;9.43;3.30;;;13.30;99.90;;;;;;4975093;28;20137;-69
2021/07/14 05:11:08;;;;;;;8.75;3.38;;;13.30;99.90;;;;;;4974755;28;20113;-71
2021/07/14 05:13:34;;;;;;;9.82;3.55;;;13.30;99.90;;;;;;4974467;28;20180;-71
2021/07/14 05:16:00;;;;;;;6.75;3.10;;;13.40;99.90;;;;;;4974348;28;20055;-70
2021/07/14 05:18:26;;;;;;;15.45;3.67;;;13.50;99.90;;;;;;4974877;28;20459;-70
2021/07/14 05:20:51;;;;;;;6.50;3.15;;;13.50;99.90;;;;;;4974922;28;20026;-70
2021/07/14 05:23:17;;;;;;;15.07;4.22;;;13.50;99.90;;;;;;4956173;28;20038;-75
2021/07/14 05:25:43;;;;;;;7.55;3.55;;;13.60;99.90;;;;;;4973623;28;20027;-75
2021/07/14 05:28:09;;;;;;;11.10;3.70;;;14.30;99.90;;;;;;4975459;28;20019;-75
2021/07/14 05:30:37;;;;;;;4.57;3.20;;;14.40;99.90;;;;;;4974849;28;20019;-76
2021/07/14 05:33:03;;;;;;;8.45;2.88;;;14.60;99.90;;;;;;4974346;28;20551;-77
2021/07/14 05:35:29;;;;;;;6.60;3.13;;;14.70;99.90;;;;;;4959011;28;20587;-76
2021/07/14 05:37:55;;;;;;;12.43;3.55;;;14.60;99.90;;;;;;4938143;29;20118;-70
2021/07/14 05:40:21;;;;;;;7.22;3.10;;;14.50;99.90;;;;;;4954889;29;20023;-70
2021/07/14 05:42:47;;;;;;;9.13;3.05;;;14.40;99.90;;;;;;4954582;29;20019;-71
2021/07/14 05:45:14;;;;;;;10.43;3.53;;;14.50;99.90;;;;;;4954560;29;20110;-71
2021/07/14 05:47:40;;;;;;;10.50;3.50;;;14.60;99.90;;;;;;4955535;29;20027;-71
2021/07/14 05:50:06;;;;;;;11.63;3.60;;;14.40;99.90;;;;;;4954997;29;20031;-70
2021/07/14 05:52:32;;;;;;;8.45;3.50;;;14.30;99.90;;;;;;4977392;28;20481;-70
2021/07/14 05:54:58;;;;;;;13.98;3.42;;;14.40;99.90;;;;;;4975938;28;20180;-72
2021/07/14 05:57:24;;;;;;;10.60;3.63;;;14.40;99.90;;;;;;4993916;28;20523;-72
2021/07/14 05:59:50;;;;;;;6.90;3.90;;;14.30;99.90;;;;;;4993897;28;20026;-71
2021/07/14 06:02:15;;;;;;;10.27;3.70;;;14.50;99.90;;;;;;4993632;28;20026;-70
2021/07/14 06:04:44;;;;;;;9.48;3.72;;;14.50;99.90;;;;;;4992694;28;20046;-72
2021/07/14 06:07:09;;;;;;;3.97;3.60;;;14.30;99.90;;;;;;4975012;28;20106;-73
2021/07/14 06:09:35;;;;;;;10.40;4.13;;;14.20;99.90;;;;;;4968229;28;20105;-73
2021/07/14 06:12:01;;;;;;;12.35;3.65;;;14.20;99.90;;;;;;4973318;28;20027;-72
2021/07/14 06:14:26;;;;;;;8.70;3.50;;;14.20;99.90;;;;;;4973418;28;20066;-70
2021/07/14 06:16:55;;;;;;;7.78;3.22;;;14.30;99.90;;;;;;4967083;28;20484;-72
2021/07/14 06:19:21;;;;;;;9.55;3.83;;;14.60;99.90;;;;;;4973810;28;20047;-71
2021/07/14 06:21:46;;;;;;;6.93;3.80;;;14.80;99.90;;;;;;4978894;28;20081;-70
2021/07/14 06:24:12;;;;;;;17.42;3.67;;;14.60;99.90;;;;;;4993133;28;20030;-72
2021/07/14 06:26:39;;;;;;;7.03;3.55;;;14.40;99.90;;;;;;4992338;28;20065;-71
2021/07/14 06:29:05;;;;;;;3.72;3.35;;;14.50;99.90;;;;;;4993610;28;20033;-72
2021/07/14 06:31:30;;;;;;;9.18;3.40;;;14.40;99.90;;;;;;4992980;28;20039;-71
2021/07/14 06:33:56;;;;;;;8.68;3.15;;;14.40;99.90;;;;;;4992153;28;20101;-71
2021/07/14 06:36:23;;;;;;;8.80;3.03;;;14.20;99.90;;;;;;4972595;28;20023;-71
2021/07/14 06:38:48;;;;;;;4.35;2.92;;;14.20;99.90;;;;;;4973473;28;20031;-72
2021/07/14 06:41:17;;;;;;;7.30;3.40;;;14.40;99.90;;;;;;4974423;28;20023;-71
2021/07/14 06:43:49;;;;;;;8.10;2.70;;;14.60;99.90;;;;;;4974249;28;20023;-73
2021/07/14 06:46:17;;;;;;;5.90;2.85;;;14.80;99.90;;;;;;4955871;28;20029;-72
2021/07/14 06:48:42;;;;;;;5.05;2.80;;;14.80;99.90;;;;;;4953728;29;20441;-71
2021/07/14 06:51:09;;;;;;;5.03;2.50;;;14.70;99.90;;;;;;4954204;28;20024;-73
2021/07/14 06:53:36;;;;;;;8.18;2.85;;;14.50;99.90;;;;;;4973236;28;20030;-72
2021/07/14 06:56:02;;;;;;;9.02;3.00;;;14.50;99.90;;;;;;4972673;28;20030;-71
2021/07/14 06:58:29;;;;;;;7.60;2.90;;;14.60;99.90;;;;;;4973422;28;20390;-71
2021/07/14 07:00:55;;;;;;;7.55;2.60;;;14.70;99.90;;;;;;4956303;28;20030;-72
2021/07/14 07:03:22;;;;;;;9.98;3.08;;;14.80;99.90;;;;;;4974723;28;20054;-72
2021/07/14 07:05:48;;;;;;;5.80;2.30;;;14.80;99.90;;;;;;4973641;28;20030;-70
2021/07/14 07:08:14;;;;;;;6.63;2.40;;;15.00;99.90;;;;;;4974217;28;20023;-71
2021/07/14 07:10:41;;;;;;;6.88;2.75;;;15.10;99.90;;;;;;4972917;28;20081;-71
2021/07/14 07:13:10;;;;;;;6.55;2.47;;;15.10;99.90;;;;;;4973599;28;20080;-73
2021/07/14 07:15:35;;;;;;;4.10;2.58;;;15.30;99.90;;;;;;4959762;28;20560;-72
2021/07/14 07:18:01;;;;;;;1.98;1.88;;;15.30;99.90;;;;;;4954527;29;20111;-71
2021/07/14 07:20:28;;;;;;;9.98;2.78;;;15.50;99.90;;;;;;4953649;29;20575;-71
2021/07/14 07:22:54;;;;;;;2.50;2.20;;;15.60;99.90;;;;;;4968690;28;20022;-73
2021/07/14 07:25:20;;;;;;;5.70;2.65;;;15.50;99.90;;;;;;4970518;28;20579;-72
2021/07/14 07:27:46;;;;;;;4.35;2.00;;;15.50;99.90;;;;;;4954910;29;20106;-72
2021/07/14 07:30:12;;;;;;;7.70;2.83;;;15.40;99.90;;;;;;4955813;29;20393;-73
2021/07/14 07:32:39;;;;;;;8.68;2.97;;;15.40;99.90;;;;;;4948936;28;20482;-71
2021/07/14 07:35:05;;;;;;;5.43;2.75;;;15.50;99.90;;;;;;4973997;28;20035;-72
2021/07/14 07:37:31;;;;;;;4.93;2.50;;;15.70;99.90;;;;;;4980233;28;20074;-71
2021/07/14 07:39:57;;;;;;;4.85;2.10;;;15.80;99.90;;;;;;4957937;28;20031;-73
2021/07/14 07:42:24;;;;;;;8.43;2.60;;;15.80;99.90;;;;;;4973008;28;20101;-72
2021/07/14 07:44:50;;;;;;;10.77;2.28;;;16.10;99.90;;;;;;4972110;28;20081;-72
2021/07/14 07:47:16;;;;;;;3.65;2.20;;;16.10;99.90;;;;;;4972170;28;20034;-71
2021/07/14 07:49:45;;;;;;;5.88;1.73;;;15.90;99.90;;;;;;4972303;28;20022;-73
2021/07/14 07:52:15;;;;;;;7.15;2.38;;;16.00;99.90;;;;;;4972390;28;20654;-71
2021/07/14 07:54:41;;;;;;;5.25;2.15;;;16.20;99.90;;;;;;4971437;28;20027;-71
2021/07/14 07:57:08;;;;;;;11.90;2.38;;;16.00;99.90;;;;;;4955026;28;20023;-71
2021/07/14 07:59:35;;;;;;;3.03;1.95;;;16.10;99.90;;;;;;4972676;28;20037;-71
2021/07/14 08:02:04;;;;;;;7.55;2.30;;;16.50;99.90;;;;;;4971981;28;20034;-69
2021/07/14 08:04:30;;;;;;;2.05;1.95;;;16.20;99.90;;;;;;4971851;28;20034;-70
2021/07/14 08:06:56;;;;;;;8.38;2.20;;;16.50;99.90;;;;;;4972225;28;20497;-69
2021/07/14 08:09:22;;;;;;;7.93;2.15;;;16.70;99.90;;;;;;4972107;28;20041;-72
2021/07/14 08:11:47;;;;;;;6.25;1.90;;;16.80;99.90;;;;;;4971597;28;20062;-70
2021/07/14 08:14:14;;;;;;;2.97;2.15;;;16.80;99.90;;;;;;4971989;28;20461;-70
2021/07/14 08:16:40;;;;;;;3.33;1.80;;;16.80;99.90;;;;;;4971765;28;20111;-71
2021/07/14 08:19:05;;;;;;;2.22;1.85;;;16.80;99.90;;;;;;4972137;28;20113;-71
2021/07/14 08:21:31;;;;;;;8.15;2.20;;;17.10;99.90;;;;;;4972213;28;20481;-70
2021/07/14 08:23:57;;;;;;;2.38;2.20;;;17.10;99.90;;;;;;4972122;28;20098;-70
2021/07/14 08:26:22;;;;;;;3.63;2.22;;;17.00;99.90;;;;;;4970896;28;20421;-71
2021/07/14 08:28:48;;;;;;;6.43;1.85;;;17.00;99.90;;;;;;4971476;28;20118;-70
2021/07/14 08:31:14;;;;;;;5.82;2.85;;;17.30;99.90;;;;;;4972032;28;20030;-71
2021/07/14 08:33:39;;;;;;;3.17;2.67;;;17.30;99.90;;;;;;4972040;28;20078;-71
2021/07/14 08:36:05;;;;;;;3.28;2.08;;;17.10;99.90;;;;;;4971211;28;20453;-70
2021/07/14 08:38:31;;;;;;;3.45;2.20;;;16.80;99.90;;;;;;4972051;28;20454;-71
2021/07/14 08:40:58;;;;;;;3.03;2.35;;;16.80;99.90;;;;;;4956045;28;20474;-71
2021/07/14 08:43:31;;;;;;;2.42;2.17;;;17.00;99.90;;;;;;4952705;29;20562;-71
2021/07/14 08:46:01;;;;;;;4.38;2.22;;;17.10;99.90;;;;;;4970681;28;20035;-71
2021/07/14 08:48:28;;;;;;;2.85;1.90;;;16.90;99.90;;;;;;4971745;28;20042;-70
2021/07/14 08:50:58;;;;;;;5.75;2.20;;;17.00;99.90;;;;;;4971738;28;20027;-71
2021/07/14 08:53:24;;;;;;;5.72;2.38;;;17.20;99.90;;;;;;4971744;28;20025;-70
2021/07/14 08:55:50;;;;;;;4.68;2.20;;;17.40;99.90;;;;;;4970769;28;20044;-70
2021/07/14 08:58:18;;;;;;;5.00;2.50;;;17.20;99.90;;;;;;4971868;28;20023;-70
2021/07/14 09:00:44;;;;;;;2.33;2.20;;;17.10;99.90;;;;;;4957320;28;20019;-71
2021/07/14 09:03:10;;;;;;;3.17;2.55;;;16.90;99.90;;;;;;4957890;28;20085;-71
2021/07/14 09:05:37;;;;;;;2.72;2.30;;;17.10;99.90;;;;;;4957060;28;20039;-71
2021/07/14 09:08:03;;;;;;;2.72;2.53;;;17.30;99.90;;;;;;4975134;28;20073;-71
2021/07/14 09:10:29;;;;;;;6.82;2.70;;;17.30;99.90;;;;;;4974803;28;20121;-71
2021/07/14 09:12:56;;;;;;;4.43;2.28;;;17.20;99.90;;;;;;4975190;28;20110;-71
2021/07/14 09:15:26;;;;;;;3.08;2.00;;;17.10;99.90;;;;;;4974115;28;20022;-71
2021/07/14 09:17:54;;;;;;;5.25;2.70;;;17.20;99.90;;;;;;4957693;28;20069;-71
2021/07/14 09:20:21;;;;;;;4.38;2.38;;;17.30;99.90;;;;;;4974949;28;20392;-71
2021/07/14 09:22:59;;;;;;;5.55;2.60;;;17.20;99.90;;;;;;4976305;28;20018;-70
2021/07/14 09:25:25;;;;;;;4.88;2.28;;;17.30;99.90;;;;;;4974238;28;20477;-71
2021/07/14 09:28:04;;;;;;;3.53;2.10;;;17.40;99.90;;;;;;4974722;28;20085;-70
2021/07/14 09:30:30;;;;;;;5.15;2.30;;;17.60;99.90;;;;;;4974703;28;20027;-71
2021/07/14 09:32:58;;;;;;;3.50;2.30;;;17.50;99.90;;;;;;4974593;28;20045;-70
2021/07/14 09:35:36;;;;;;;4.78;2.17;;;17.60;99.90;;;;;;4973879;28;20531;-71
2021/07/14 09:38:05;;;;;;;5.72;2.30;;;17.70;99.90;;;;;;4974753;28;20027;-70
2021/07/14 09:40:31;;;;;;;3.75;2.25;;;17.80;99.90;;;;;;4956745;28;20027;-70
2021/07/14 09:42:57;;;;;;;1.80;1.70;;;17.70;99.90;;;;;;4974631;28;20042;-69
2021/07/14 09:45:52;;;;;;;4.20;2.30;;;18.00;99.90;;;;;;4973873;28;20106;-70
2021/07/14 09:48:25;;;;;;;4.22;2.08;;;18.30;99.90;;;;;;4974237;28;20371;-70
2021/07/14 09:50:55;;;;;;;3.35;1.75;;;18.30;99.90;;;;;;4974399;28;20030;-70
2021/07/14 09:53:23;;;;;;;6.68;2.03;;;18.50;99.90;;;;;;4974504;28;20493;-70
2021/07/14 09:55:52;;;;;;;4.25;1.60;;;18.90;99.90;;;;;;4973450;28;20031;-71
2021/07/14 09:58:29;;;;;;;3.05;1.70;;;19.00;99.90;;;;;;4974231;28;20023;-72
2021/07/14 10:01:03;;;;;;;2.22;1.60;;;19.00;99.90;;;;;;4974223;28;20102;-71
2021/07/14 10:03:29;;;;;;;3.38;1.67;;;18.90;99.90;;;;;;4974525;28;20035;-70
2021/07/14 10:06:05;;;;;;;3.30;1.60;;;18.90;99.90;;;;;;4973620;28;20097;-71
2021/07/14 10:08:32;;;;;;;2.50;1.85;;;19.30;99.90;;;;;;4974131;28;20031;-71
2021/07/14 10:11:12;;;;;;;1.63;1.50;;;19.30;99.90;;;;;;4973977;28;20031;-71
2021/07/14 10:13:39;;;;;;;4.15;1.60;;;19.30;99.90;;;;;;4973829;28;20050;-69
2021/07/14 10:16:06;;;;;;;3.28;1.60;;;19.70;99.90;;;;;;4973393;28;20022;-71
2021/07/14 10:18:33;;;;;;;3.28;1.42;;;19.90;99.90;;;;;;4970819;28;20022;-71
2021/07/14 10:21:02;;;;;;;2.33;1.38;;;20.20;99.90;;;;;;4956259;28;20030;-70
2021/07/14 10:23:30;;;;;;;2.33;1.55;;;19.90;99.90;;;;;;4974128;28;20034;-72
2021/07/14 10:25:58;;;;;;;1.95;0.98;;;19.80;99.90;;;;;;4972711;28;20038;-71
2021/07/14 10:28:24;;;;;;;7.55;1.40;;;20.00;99.90;;;;;;4973491;28;20019;-71
2021/07/14 10:30:52;;;;;;;1.77;1.30;;;20.10;99.90;;;;;;4951781;29;20423;-72
2021/07/14 10:33:19;;;;;;;1.42;1.05;;;20.30;99.90;;;;;;4953889;29;20034;-72
2021/07/14 10:35:47;;;;;;;2.88;1.08;;;20.60;99.90;;;;;;4953383;29;20023;-73
2021/07/14 10:38:20;;;;;;;1.98;0.88;;;20.60;99.90;;;;;;4961341;28;20030;-73
2021/07/14 10:40:47;;;;;;;3.80;1.00;;;20.90;99.90;;;;;;4967963;28;20015;-72
2021/07/14 10:43:18;;;;;;;4.88;1.25;;;21.10;99.90;;;;;;4973875;28;20023;-75
2021/07/14 10:45:49;;;;;;;2.80;1.00;;;20.90;99.90;;;;;;4971658;28;20668;-73
2021/07/14 10:48:17;;;;;;;1.55;1.08;;;21.20;99.90;;;;;;4973569;28;20042;-76
2021/07/14 10:50:44;;;;;;;4.13;1.00;;;20.60;99.90;;;;;;4973694;28;20109;-76
2021/07/14 10:53:13;;;;;;;2.28;0.93;;;20.90;99.90;;;;;;4979072;28;20031;-76
2021/07/14 10:55:41;;;;;;;1.05;0.63;;;21.20;99.90;;;;;;4975436;28;20018;-72
2021/07/14 10:58:09;;;;;;;1.77;0.93;;;20.90;99.90;;;;;;4974018;28;20019;-73
2021/07/14 11:00:40;;;;;;;1.20;0.77;;;21.50;99.90;;;;;;4973508;28;20438;-73
2021/07/14 11:03:06;;;;;;;2.55;0.80;;;22.20;99.90;;;;;;4973940;28;20030;-73
2021/07/14 11:05:47;;;;;;;0.90;0.90;;;21.90;99.90;;;;;;4972739;28;20065;-74
2021/07/14 11:08:49;;;;;;;1.20;0.73;;;21.70;99.90;;;;;;4973456;28;20037;-73
2021/07/14 11:11:23;;;;;;;1.95;0.80;;;22.10;99.90;;;;;;4912983;29;20036;-72
2021/07/14 11:13:51;;;;;;;0.98;0.88;;;22.60;99.90;;;;;;4965314;28;20046;-74
2021/07/14 11:16:34;;;;;;;0.80;0.80;;;22.20;99.90;;;;;;4972616;28;20101;-73
2021/07/14 11:19:11;;;;;;;1.23;0.70;;;22.00;99.90;;;;;;4973510;28;20037;-74
2021/07/14 11:22:03;;;;;;;1.35;0.70;;;22.20;99.90;;;;;;4955743;28;20066;-73
2021/07/14 11:27:29;;;;;;;0.70;0.70;;;21.90;99.90;;;;;;4973428;28;20039;-75
2021/07/14 11:30:04;;;;;;;0.60;0.60;;;22.40;99.90;;;;;;4950639;28;20043;-75
2021/07/14 11:35:21;;;;;;;0.60;0.47;;;21.20;99.90;;;;;;4973774;28;20034;-74
2021/07/14 11:37:47;;;;;;;1.27;0.50;;;21.20;99.90;;;;;;4973935;28;20106;-73
2021/07/14 11:40:18;;;;;;;1.13;0.55;;;21.90;99.90;;;;;;4974560;28;20062;-73
2021/07/14 11:42:53;;;;;;;0.55;0.55;;;22.50;99.90;;;;;;4975366;28;20049;-73
2021/07/14 11:45:33;;;;;;;0.80;0.50;;;22.80;99.90;;;;;;4972984;28;20035;-74
2021/07/14 11:48:03;;;;;;;1.38;0.57;;;22.40;99.90;;;;;;4973916;28;20038;-73
2021/07/14 11:53:28;;;;;;;1.02;0.60;;;21.50;99.90;;;;;;4962533;28;20031;-74
2021/07/14 11:56:12;;;;;;;0.65;0.65;;;21.70;99.90;;;;;;4953549;29;20445;-71
2021/07/14 11:58:50;;;;;;;1.23;0.60;;;22.00;99.90;;;;;;4954521;29;20032;-70
2021/07/14 12:01:21;;;;;;;0.47;0.47;;;22.70;99.90;;;;;;4953576;28;20475;-73
2021/07/14 12:04:02;;;;;;;1.25;0.45;;;23.40;99.90;;;;;;4969998;28;20134;-74
2021/07/14 12:06:44;;;;;;;0.40;0.40;;;22.90;99.90;;;;;;4972594;28;20031;-74
2021/07/14 12:09:13;;;;;;;0.60;0.60;;;23.20;99.90;;;;;;4972745;28;20030;-72
2021/07/14 12:11:52;;;;;;;0.90;0.55;;;23.80;99.90;;;;;;4972507;28;20039;-73
2021/07/14 12:14:37;;;;;;;2.38;0.55;;;23.90;99.90;;;;;;4972114;28;20540;-73
2021/07/14 12:17:13;;;;;;;1.42;0.30;;;24.00;99.90;;;;;;4972967;28;20023;-73
2021/07/14 12:19:40;;;;;;;0.40;0.40;;;24.70;99.90;;;;;;4972996;28;20038;-75
2021/07/14 12:22:10;;;;;;;2.45;0.60;;;24.90;99.90;;;;;;4972579;28;20030;-73
2021/07/14 12:24:42;;;;;;;0.40;0.40;;;24.60;99.90;;;;;;4982247;28;20109;-73
2021/07/14 12:27:07;;;;;;;;;;;23.80;99.90;;;;;;4985414;28;20027;-73
2021/07/14 12:29:33;;;;;;;1.02;0.50;;;23.20;99.90;;;;;;4981535;28;19952;-73
2021/07/14 12:32:00;;;;;;;0.65;0.50;;;23.30;99.90;;;;;;4973049;28;20030;-73
2021/07/14 12:34:28;;;;;;;2.83;0.73;;;23.50;99.90;;;;;;4947760;28;20031;-72
2021/07/14 12:36:54;;;;;;;0.57;0.57;;;23.10;99.90;;;;;;4975720;28;20018;-73
2021/07/14 12:39:26;;;;;;;4.63;0.50;;;23.30;99.90;;;;;;4962736;28;20031;-73
2021/07/14 12:41:54;;;;;;;1.05;0.60;;;23.70;99.90;;;;;;4975639;28;20482;-74
2021/07/14 12:44:20;;;;;;;0.40;0.40;;;24.20;99.90;;;;;;4975290;28;20042;-74
2021/07/14 12:46:46;;;;;;;0.40;0.40;;;24.80;99.90;;;;;;4975904;28;20019;-72
2021/07/14 12:49:14;;;;;;;2.97;0.57;;;25.60;99.90;;;;;;4975807;28;20043;-70
2021/07/14 12:51:58;;;;;;;2.40;0.47;;;25.70;99.90;;;;;;4975498;28;20023;-73
2021/07/14 12:54:23;;;;;;;0.55;0.55;;;26.00;99.50;;;;;;4955676;29;20027;-71
2021/07/14 12:56:49;;;;;;;1.10;0.60;;;25.30;99.90;;;;;;4955942;29;20030;-71
2021/07/14 12:59:14;;;;;;;0.63;0.38;;;25.80;98.70;;;;;;4956627;29;20036;-72
2021/07/14 13:01:45;;;;;;;0.70;0.70;;;25.90;99.70;;;;;;4956976;28;20027;-72
2021/07/14 13:04:15;;;;;;;4.47;0.60;;;27.60;98.20;;;;;;4975321;28;20038;-73